createdAt,value
2023-03-14T00:01:33.947Z,10.87
2023-03-14T00:04:02.124Z,10.79
2023-03-14T00:06:30.495Z,10.71
2023-03-14T00:08:59.288Z,10.62
2023-03-14T00:11:27.561Z,10.54
2023-03-14T00:13:55.730Z,10.45
2023-03-14T00:16:26.772Z,10.39
2023-03-14T00:18:54.943Z,10.34
2023-03-14T00:21:23.217Z,10.29
2023-03-14T00:23:51.293Z,10.24
2023-03-14T00:26:21.186Z,10.20
2023-03-14T00:28:53.276Z,10.14
2023-03-14T00:31:21.611Z,10.09
2023-03-14T00:33:49.912Z,10.06
2023-03-14T00:36:19.158Z,10.05
2023-03-14T00:38:49.463Z,10.08
2023-03-14T00:41:20.290Z,10.06
2023-03-14T00:43:49.784Z,9.99
2023-03-14T00:46:18.499Z,9.94
2023-03-14T00:48:47.962Z,9.89
2023-03-14T00:51:16.644Z,9.84
2023-03-14T00:53:47.991Z,9.80
2023-03-14T00:56:16.156Z,9.74
2023-03-14T00:58:44.432Z,9.69
2023-03-14T01:01:19.356Z,9.62
2023-03-14T01:03:47.956Z,9.54
2023-03-14T01:06:20.534Z,9.46
2023-03-14T01:08:49.318Z,9.39
2023-03-14T01:11:20.881Z,9.33
2023-03-14T01:13:49.254Z,9.23
2023-03-14T01:16:19.298Z,9.11
2023-03-14T01:18:48.561Z,9.01
2023-03-14T01:21:24.039Z,8.91
2023-03-14T01:23:53.076Z,8.81
2023-03-14T01:26:24.539Z,8.71
2023-03-14T01:28:54.489Z,8.63
2023-03-14T01:31:23.839Z,8.55
2023-03-14T01:33:52.546Z,8.47
2023-03-14T01:36:20.921Z,8.40
2023-03-14T01:38:49.604Z,8.32
2023-03-14T01:41:24.770Z,8.24
2023-03-14T01:43:54.039Z,8.17
2023-03-14T01:46:22.212Z,8.13
2023-03-14T01:48:53.460Z,8.11
2023-03-14T01:51:30.520Z,8.08
2023-03-14T01:54:11.816Z,8.07
2023-03-14T01:56:42.330Z,8.05
2023-03-14T01:59:11.436Z,8.03
2023-03-14T02:01:43.404Z,8.01
2023-03-14T02:04:12.185Z,7.99
2023-03-14T02:07:01.951Z,7.98
2023-03-14T02:09:34.437Z,7.98
2023-03-14T02:12:03.027Z,7.99
2023-03-14T02:14:53.714Z,7.97
2023-03-14T02:17:26.903Z,7.94
2023-03-14T02:20:13.608Z,7.93
2023-03-14T02:22:46.699Z,7.90
2023-03-14T02:25:17.938Z,7.90
2023-03-14T02:27:47.751Z,7.88
2023-03-14T02:30:19.096Z,7.87
2023-03-14T02:32:50.596Z,7.86
2023-03-14T02:35:23.427Z,7.87
2023-03-14T02:38:18.334Z,7.87
2023-03-14T02:40:46.914Z,7.86
2023-03-14T02:43:15.387Z,7.88
2023-03-14T02:45:49.595Z,7.89
2023-03-14T02:48:28.214Z,7.89
2023-03-14T02:50:59.255Z,7.89
2023-03-14T02:53:30.506Z,7.91
2023-03-14T02:56:01.338Z,7.96
2023-03-14T02:58:31.047Z,8.00
2023-03-14T03:01:06.861Z,8.03
2023-03-14T03:03:35.621Z,8.04
2023-03-14T03:06:04.175Z,8.02
2023-03-14T03:08:32.541Z,8.00
2023-03-14T03:11:01.730Z,7.97
2023-03-14T03:13:31.665Z,7.96
2023-03-14T03:16:00.225Z,7.94
2023-03-14T03:18:28.507Z,7.90
2023-03-14T03:20:56.675Z,7.88
2023-03-14T03:23:24.849Z,7.85
2023-03-14T03:25:53.040Z,7.80
2023-03-14T03:28:21.610Z,7.79
2023-03-14T03:30:50.940Z,7.77
2023-03-14T03:33:19.393Z,7.72
2023-03-14T03:35:50.283Z,7.66
2023-03-14T03:38:23.102Z,7.61
2023-03-14T03:40:53.453Z,7.56
2023-03-14T03:43:22.112Z,7.55
2023-03-14T03:45:50.925Z,7.53
2023-03-14T03:48:20.504Z,7.53
2023-03-14T03:50:48.996Z,7.52
2023-03-14T03:53:32.325Z,7.51
2023-03-14T03:56:02.800Z,7.50
2023-03-14T03:58:31.526Z,7.49
2023-03-14T04:00:59.695Z,7.47
2023-03-14T04:03:29.030Z,7.45
2023-03-14T04:06:06.927Z,7.45
2023-03-14T04:08:37.216Z,7.44
2023-03-14T04:11:06.309Z,7.43
2023-03-14T04:13:53.329Z,7.44
2023-03-14T04:16:26.317Z,7.45
2023-03-14T04:19:00.012Z,7.45
2023-03-14T04:21:28.906Z,7.45
2023-03-14T04:23:59.021Z,7.44
2023-03-14T04:26:31.185Z,7.43
2023-03-14T04:28:59.565Z,7.44
2023-03-14T04:31:28.789Z,7.42
2023-03-14T04:33:57.036Z,7.42
2023-03-14T04:36:35.947Z,7.42
2023-03-14T04:39:08.121Z,7.45
2023-03-14T04:41:39.164Z,7.44
2023-03-14T04:44:08.354Z,7.45
2023-03-14T04:46:37.600Z,7.46
2023-03-14T04:49:08.182Z,7.47
2023-03-14T04:51:37.797Z,7.52
2023-03-14T04:54:06.163Z,7.55
2023-03-14T04:56:35.363Z,7.53
2023-03-14T04:59:05.272Z,7.52
2023-03-14T05:01:35.728Z,7.50
2023-03-14T05:04:21.719Z,7.47
2023-03-14T05:07:10.233Z,7.43
2023-03-14T05:09:58.782Z,7.40
2023-03-14T05:13:02.284Z,7.37
2023-03-14T05:15:51.912Z,7.34
2023-03-14T05:18:39.174Z,7.30
2023-03-14T05:21:27.214Z,7.29
2023-03-14T05:24:18.222Z,7.32
2023-03-14T05:27:07.489Z,7.36
2023-03-14T05:29:53.679Z,7.39
2023-03-14T05:32:21.804Z,7.42
2023-03-14T05:35:13.075Z,7.46
2023-03-14T05:37:49.845Z,7.47
2023-03-14T05:40:36.860Z,7.48
2023-03-14T05:43:11.275Z,7.46
2023-03-14T05:45:59.549Z,7.45
2023-03-14T05:49:00.771Z,7.47
2023-03-14T05:51:54.848Z,7.48
2023-03-14T05:54:45.245Z,7.50
2023-03-14T05:57:13.409Z,7.53
2023-03-14T06:00:02.161Z,7.58
2023-03-14T06:02:46.719Z,7.63
2023-03-14T06:05:20.431Z,7.67
2023-03-14T06:07:49.068Z,7.72
2023-03-14T06:10:17.685Z,7.78
2023-03-14T06:12:46.574Z,7.85
2023-03-14T06:15:14.849Z,7.90
2023-03-14T06:17:44.046Z,7.95
2023-03-14T06:20:13.751Z,7.99
2023-03-14T06:22:43.268Z,7.98
2023-03-14T06:25:12.553Z,8.00
2023-03-14T06:27:41.442Z,8.02
2023-03-14T06:30:10.955Z,8.03
2023-03-14T06:32:39.542Z,8.07
2023-03-14T06:35:10.484Z,8.10
2023-03-14T06:37:42.345Z,8.14
2023-03-14T06:40:13.754Z,8.16
2023-03-14T06:43:17.484Z,8.18
2023-03-14T06:45:48.248Z,8.18
2023-03-14T06:48:16.795Z,8.17
2023-03-14T06:50:50.023Z,8.19
2023-03-14T06:53:18.260Z,8.23
2023-03-14T06:55:46.929Z,8.28
2023-03-14T06:58:16.279Z,8.36
2023-03-14T07:00:46.260Z,8.44
2023-03-14T07:03:17.621Z,8.54
2023-03-14T07:05:49.774Z,8.62
2023-03-14T07:08:18.459Z,8.71
2023-03-14T07:10:46.769Z,8.81
2023-03-14T07:13:15.313Z,8.90
2023-03-14T07:15:58.054Z,9.00
2023-03-14T07:18:26.518Z,9.13
2023-03-14T07:20:54.821Z,9.27
2023-03-14T07:23:23.054Z,9.41
2023-03-14T07:25:55.071Z,9.51
2023-03-14T07:28:25.336Z,9.65
2023-03-14T07:30:59.062Z,9.77
2023-03-14T07:33:30.899Z,9.86
2023-03-14T07:35:59.568Z,9.91
2023-03-14T07:38:28.166Z,9.93
2023-03-14T07:41:15.594Z,9.96
2023-03-14T07:43:50.930Z,10.00
2023-03-14T07:46:19.571Z,10.03
2023-03-14T07:48:47.896Z,10.06
2023-03-14T07:51:16.061Z,10.10
2023-03-14T07:53:45.159Z,10.13
2023-03-14T07:56:13.537Z,10.16
2023-03-14T07:58:41.823Z,10.20
2023-03-14T08:01:10.389Z,10.24
2023-03-14T08:03:38.639Z,10.30
2023-03-14T08:06:07.563Z,10.34
2023-03-14T08:08:36.140Z,10.41
2023-03-14T08:11:06.458Z,10.45
2023-03-14T08:13:34.834Z,10.51
2023-03-14T08:16:03.058Z,10.55
2023-03-14T08:18:31.697Z,10.60
2023-03-14T08:20:59.862Z,10.68
2023-03-14T08:23:28.338Z,10.79
2023-03-14T08:25:56.516Z,10.93
2023-03-14T08:28:24.688Z,11.07
2023-03-14T08:30:56.053Z,11.17
2023-03-14T08:33:25.523Z,11.24
2023-03-14T08:35:55.476Z,11.31
2023-03-14T08:38:23.725Z,11.37
2023-03-14T08:41:00.089Z,11.43
2023-03-14T08:43:29.581Z,11.47
2023-03-14T08:46:02.143Z,11.49
2023-03-14T08:48:31.555Z,11.53
2023-03-14T08:51:09.981Z,11.61
2023-03-14T08:53:38.457Z,11.72
2023-03-14T08:56:07.919Z,11.80
2023-03-14T08:58:38.114Z,11.85
2023-03-14T09:01:07.392Z,11.91
2023-03-14T09:03:35.540Z,11.98
2023-03-14T09:06:06.049Z,12.08
2023-03-14T09:08:35.545Z,12.15
2023-03-14T09:11:08.473Z,12.23
2023-03-14T09:13:37.383Z,12.31
2023-03-14T09:16:06.202Z,12.41
2023-03-14T09:18:34.524Z,12.51
2023-03-14T09:21:02.794Z,12.56
2023-03-14T09:23:31.069Z,12.61
2023-03-14T09:26:00.211Z,12.67
2023-03-14T09:28:29.056Z,12.68
2023-03-14T09:30:57.344Z,12.75
2023-03-14T09:33:25.499Z,12.83
2023-03-14T09:35:53.927Z,12.91
2023-03-14T09:38:22.253Z,13.00
2023-03-14T09:40:51.037Z,13.09
2023-03-14T09:43:19.318Z,13.17
2023-03-14T09:45:49.461Z,13.25
2023-03-14T09:48:19.239Z,13.30
2023-03-14T09:50:53.629Z,13.32
2023-03-14T09:53:27.010Z,13.29
2023-03-14T09:55:56.550Z,13.23
2023-03-14T09:58:25.746Z,13.18
2023-03-14T10:00:57.212Z,13.16
2023-03-14T10:03:36.479Z,13.07
2023-03-14T10:06:14.845Z,13.01
2023-03-14T10:08:43.828Z,12.99
2023-03-14T10:11:17.681Z,12.99
2023-03-14T10:14:07.108Z,13.00
2023-03-14T10:16:42.943Z,13.05
2023-03-14T10:19:16.759Z,13.08
2023-03-14T10:21:52.004Z,13.07
2023-03-14T10:24:24.368Z,13.06
2023-03-14T10:27:03.314Z,13.08
2023-03-14T10:29:33.106Z,13.11
2023-03-14T10:32:02.927Z,13.13
2023-03-14T10:34:36.436Z,13.15
2023-03-14T10:37:24.052Z,13.19
2023-03-14T10:39:54.570Z,13.28
2023-03-14T10:42:26.433Z,13.39
2023-03-14T10:44:59.711Z,13.55
2023-03-14T10:47:29.555Z,13.72
2023-03-14T10:49:58.831Z,13.85
2023-03-14T10:52:50.971Z,14.00
2023-03-14T10:55:17.306Z,14.15
2023-03-14T10:57:45.776Z,14.21
2023-03-14T11:00:22.327Z,14.26
2023-03-14T11:03:02.809Z,14.29
2023-03-14T11:05:55.984Z,14.27
2023-03-14T11:08:43.193Z,14.23
2023-03-14T11:11:17.457Z,14.17
2023-03-14T11:14:07.702Z,14.11
2023-03-14T11:16:40.158Z,14.15
2023-03-14T11:19:43.208Z,14.31
2023-03-14T11:22:57.908Z,14.84
2023-03-14T11:25:43.183Z,15.00
2023-03-14T11:28:19.860Z,14.91
2023-03-14T11:31:18.361Z,14.85
2023-03-14T11:33:58.612Z,14.87
2023-03-14T11:36:47.762Z,14.84
2023-03-14T11:39:18.066Z,14.82
2023-03-14T11:42:05.711Z,14.85
2023-03-14T11:44:40.843Z,14.90
2023-03-14T11:47:15.784Z,14.93
2023-03-14T11:49:50.821Z,15.04
2023-03-14T11:52:23.999Z,15.06
2023-03-14T11:55:11.112Z,14.95
2023-03-14T11:57:41.026Z,14.83
2023-03-14T12:00:23.519Z,14.73
2023-03-14T12:03:06.205Z,14.67
2023-03-14T12:05:46.398Z,14.61
2023-03-14T12:08:29.315Z,14.54
2023-03-14T12:11:20.738Z,14.50
2023-03-14T12:13:51.566Z,14.52
2023-03-14T12:16:25.645Z,14.55
2023-03-14T12:18:55.084Z,14.53
2023-03-14T12:21:23.865Z,14.48
2023-03-14T12:23:57.155Z,14.45
2023-03-14T12:26:27.722Z,14.44
2023-03-14T12:28:59.031Z,14.41
2023-03-14T12:31:33.310Z,14.40
2023-03-14T12:34:04.693Z,14.44
2023-03-14T12:36:45.360Z,14.48
2023-03-14T12:39:35.445Z,14.48
2023-03-14T12:42:18.770Z,14.42
2023-03-14T12:44:52.060Z,14.31
2023-03-14T12:47:20.137Z,14.23
2023-03-14T12:49:51.377Z,14.18
2023-03-14T12:52:38.492Z,14.24
2023-03-14T12:55:28.689Z,14.34
2023-03-14T12:57:58.900Z,14.40
2023-03-14T13:00:35.370Z,14.41
2023-03-14T13:03:17.373Z,14.40
2023-03-14T13:05:59.154Z,14.40
2023-03-14T13:08:46.371Z,14.45
2023-03-14T13:11:20.755Z,14.53
2023-03-14T13:13:53.365Z,14.59
2023-03-14T13:16:22.512Z,14.63
2023-03-14T13:18:52.786Z,14.67
2023-03-14T13:21:21.264Z,14.66
2023-03-14T13:24:20.054Z,14.56
2023-03-14T13:26:48.228Z,14.43
2023-03-14T13:29:25.696Z,14.37
2023-03-14T13:31:56.144Z,14.33
2023-03-14T13:34:30.486Z,14.30
2023-03-14T13:36:58.939Z,14.24
2023-03-14T13:39:30.188Z,14.15
2023-03-14T13:42:02.716Z,14.04
2023-03-14T13:44:36.463Z,13.94
2023-03-14T13:47:06.871Z,13.81
2023-03-14T13:49:36.743Z,13.63
2023-03-14T13:52:06.381Z,13.57
2023-03-14T13:54:34.679Z,13.59
2023-03-14T13:57:05.615Z,13.69
2023-03-14T13:59:35.959Z,13.83
2023-03-14T14:02:30.427Z,13.99
2023-03-14T14:04:58.835Z,14.17
2023-03-14T14:07:26.973Z,14.26
2023-03-14T14:09:55.468Z,14.33
2023-03-14T14:12:29.270Z,14.40
2023-03-14T14:15:24.360Z,14.45
2023-03-14T14:17:55.045Z,14.47
2023-03-14T14:20:38.463Z,14.46
2023-03-14T14:23:11.305Z,14.40
2023-03-14T14:25:39.785Z,14.31
2023-03-14T14:28:24.559Z,14.18
2023-03-14T14:31:26.345Z,14.07
2023-03-14T14:34:03.284Z,14.07
2023-03-14T14:36:42.514Z,14.23
2023-03-14T14:39:13.349Z,14.51
2023-03-14T14:41:42.755Z,14.53
2023-03-14T14:44:15.326Z,14.36
2023-03-14T14:46:43.828Z,14.15
2023-03-14T14:49:15.348Z,13.97
2023-03-14T14:51:53.666Z,13.86
2023-03-14T14:54:44.068Z,13.73
2023-03-14T14:57:21.556Z,13.65
2023-03-14T14:59:53.538Z,13.58
2023-03-14T15:02:33.858Z,13.56
2023-03-14T15:05:02.252Z,13.57
2023-03-14T15:07:30.432Z,13.63
2023-03-14T15:09:58.598Z,13.69
2023-03-14T15:12:26.670Z,13.73
2023-03-14T15:14:58.341Z,13.76
2023-03-14T15:17:26.704Z,14.04
2023-03-14T15:19:56.605Z,14.33
2023-03-14T15:22:24.723Z,14.47
2023-03-14T15:24:53.055Z,14.48
2023-03-14T15:27:21.227Z,14.44
2023-03-14T15:29:49.605Z,14.39
2023-03-14T15:32:19.233Z,14.27
2023-03-14T15:34:47.388Z,14.16
2023-03-14T15:37:17.600Z,14.06
2023-03-14T15:39:45.784Z,13.98
2023-03-14T15:42:14.076Z,13.92
2023-03-14T15:44:42.221Z,13.86
2023-03-14T15:47:11.835Z,13.78
2023-03-14T15:49:40.106Z,13.70
2023-03-14T15:52:09.113Z,13.66
2023-03-14T15:54:37.263Z,13.61
2023-03-14T15:57:07.697Z,13.57
2023-03-14T15:59:36.683Z,13.65
2023-03-14T16:02:04.860Z,13.70
2023-03-14T16:04:33.098Z,13.75
2023-03-14T16:07:01.398Z,13.78
2023-03-14T16:09:29.573Z,13.75
2023-03-14T16:11:57.744Z,13.65
2023-03-14T16:14:26.530Z,13.54
2023-03-14T16:16:56.050Z,13.43
2023-03-14T16:19:26.960Z,13.31
2023-03-14T16:21:55.348Z,13.23
2023-03-14T16:24:23.623Z,13.17
2023-03-14T16:26:51.793Z,13.13
2023-03-14T16:29:20.168Z,13.11
2023-03-14T16:31:48.459Z,13.08
2023-03-14T16:34:16.720Z,13.03
2023-03-14T16:36:44.992Z,12.98
2023-03-14T16:39:13.164Z,12.90
2023-03-14T16:41:41.235Z,12.83
2023-03-14T16:44:09.407Z,12.76
2023-03-14T16:46:38.104Z,12.66
2023-03-14T16:49:06.981Z,12.57
2023-03-14T16:51:35.153Z,12.50
2023-03-14T16:54:03.633Z,12.42
2023-03-14T16:56:31.806Z,12.33
2023-03-14T16:58:59.984Z,12.24
2023-03-14T17:01:28.250Z,12.18
2023-03-14T17:03:57.218Z,12.13
2023-03-14T17:06:27.914Z,12.08
2023-03-14T17:08:57.578Z,12.02
2023-03-14T17:11:26.160Z,11.96
2023-03-14T17:13:54.367Z,11.91
2023-03-14T17:16:24.359Z,11.86
2023-03-14T17:18:53.344Z,11.80
2023-03-14T17:21:22.126Z,11.75
2023-03-14T17:23:51.121Z,11.72
2023-03-14T17:26:19.399Z,11.69
2023-03-14T17:28:47.670Z,11.69
2023-03-14T17:31:18.326Z,11.68
2023-03-14T17:33:47.094Z,11.67
2023-03-14T17:36:15.845Z,11.66
2023-03-14T17:38:44.468Z,11.66
2023-03-14T17:41:14.270Z,11.63
2023-03-14T17:43:42.959Z,11.60
2023-03-14T17:46:15.099Z,11.59
2023-03-14T17:48:45.894Z,11.56
2023-03-14T17:51:15.465Z,11.53
2023-03-14T17:53:43.757Z,11.52
2023-03-14T17:56:12.839Z,11.50
2023-03-14T17:58:44.185Z,11.49
2023-03-14T18:01:15.961Z,11.49
2023-03-14T18:03:45.850Z,11.48
2023-03-14T18:06:16.366Z,11.50
2023-03-14T18:08:44.868Z,11.48
2023-03-14T18:11:13.275Z,11.47
2023-03-14T18:13:41.922Z,11.47
2023-03-14T18:16:15.498Z,11.47
2023-03-14T18:18:47.737Z,11.44
2023-03-14T18:21:17.797Z,11.43
2023-03-14T18:23:46.098Z,11.42
2023-03-14T18:26:14.359Z,11.41
2023-03-14T18:28:42.937Z,11.41
2023-03-14T18:31:13.401Z,11.40
2023-03-14T18:33:42.759Z,11.39
2023-03-14T18:36:11.773Z,11.37
2023-03-14T18:38:43.716Z,11.36
2023-03-14T18:41:17.593Z,11.34
2023-03-14T18:43:46.521Z,11.31
2023-03-14T18:46:15.893Z,11.27
2023-03-14T18:48:44.384Z,11.24
2023-03-14T18:51:18.293Z,11.21
2023-03-14T18:53:47.408Z,11.18
2023-03-14T18:56:16.782Z,11.18
2023-03-14T18:58:45.359Z,11.18
2023-03-14T19:01:14.298Z,11.17
2023-03-14T19:03:42.746Z,11.18
2023-03-14T19:06:12.221Z,11.19
2023-03-14T19:08:42.350Z,11.21
2023-03-14T19:11:12.664Z,11.22
2023-03-14T19:13:42.282Z,11.15
2023-03-14T19:16:13.057Z,10.52
2023-03-14T19:18:41.492Z,9.51
2023-03-14T19:21:12.491Z,8.64
2023-03-14T19:23:43.078Z,8.06
2023-03-14T19:26:11.432Z,7.60
2023-03-14T19:28:39.702Z,7.26
2023-03-14T19:31:08.082Z,6.95
2023-03-14T19:33:36.466Z,6.69
2023-03-14T19:36:05.632Z,6.32
2023-03-14T19:38:34.054Z,5.95
2023-03-14T19:41:02.204Z,5.64
2023-03-14T19:43:30.783Z,5.30
2023-03-14T19:45:59.119Z,4.94
2023-03-14T19:48:30.636Z,4.56
2023-03-14T19:51:00.157Z,4.26
2023-03-14T19:53:29.002Z,4.01
2023-03-14T19:55:57.798Z,3.78
2023-03-14T19:58:26.083Z,3.61
2023-03-14T20:00:56.334Z,3.47
2023-03-14T20:03:25.281Z,3.29
2023-03-14T20:05:54.083Z,3.09
2023-03-14T20:08:23.367Z,2.91
2023-03-14T20:10:51.681Z,2.75
2023-03-14T20:13:22.291Z,2.63
2023-03-14T20:15:53.339Z,2.54
2023-03-14T20:18:23.472Z,2.47
2023-03-14T20:20:52.494Z,2.43
2023-03-14T20:23:21.310Z,2.37
2023-03-14T20:25:57.162Z,2.30
2023-03-14T20:28:26.162Z,2.23
2023-03-14T20:30:54.908Z,2.19
2023-03-14T20:33:23.321Z,2.17
2023-03-14T20:35:57.185Z,2.16
2023-03-14T20:38:26.901Z,2.14
2023-03-14T20:40:59.517Z,2.09
2023-03-14T20:43:29.221Z,2.03
2023-03-14T20:45:59.196Z,2.00
2023-03-14T20:48:28.764Z,1.95
2023-03-14T20:50:57.522Z,1.92
2023-03-14T20:53:25.837Z,1.89
2023-03-14T20:55:56.031Z,1.86
2023-03-14T20:58:26.866Z,1.86
2023-03-14T21:00:56.335Z,1.87
2023-03-14T21:03:25.144Z,1.89
2023-03-14T21:05:53.438Z,1.87
2023-03-14T21:08:24.660Z,1.83
2023-03-14T21:10:55.003Z,1.79
2023-03-14T21:13:24.303Z,1.77
2023-03-14T21:15:52.777Z,1.79
2023-03-14T21:18:23.487Z,1.79
2023-03-14T21:20:52.998Z,1.82
2023-03-14T21:23:22.301Z,1.81
2023-03-14T21:25:50.679Z,1.81
2023-03-14T21:28:19.152Z,1.81
2023-03-14T21:30:47.528Z,1.82
2023-03-14T21:33:16.517Z,1.83
2023-03-14T21:35:44.979Z,1.85
2023-03-14T21:38:13.479Z,1.82
2023-03-14T21:40:41.650Z,1.76
2023-03-14T21:43:09.932Z,1.72
2023-03-14T21:45:38.198Z,1.70
2023-03-14T21:48:06.576Z,1.71
2023-03-14T21:50:34.751Z,1.71
2023-03-14T21:53:02.919Z,1.72
2023-03-14T21:55:30.988Z,1.74
2023-03-14T21:57:59.366Z,1.76
2023-03-14T22:00:27.539Z,1.77
2023-03-14T22:03:12.850Z,1.81
2023-03-14T22:05:44.158Z,1.86
2023-03-14T22:08:13.961Z,1.90
2023-03-14T22:10:46.545Z,1.95
2023-03-14T22:13:15.836Z,1.99
2023-03-14T22:15:45.904Z,1.98
2023-03-14T22:18:15.759Z,1.97
2023-03-14T22:20:44.670Z,1.97
2023-03-14T22:23:13.456Z,1.99
2023-03-14T22:25:43.462Z,2.01
2023-03-14T22:28:11.939Z,2.03
2023-03-14T22:30:40.046Z,2.05
2023-03-14T22:33:08.607Z,2.07
2023-03-14T22:35:36.822Z,2.09
2023-03-14T22:38:05.342Z,2.13
2023-03-14T22:40:33.562Z,2.13
2023-03-14T22:43:01.794Z,2.13
2023-03-14T22:45:30.122Z,2.13
2023-03-14T22:47:58.642Z,2.12
2023-03-14T22:50:27.019Z,2.13
2023-03-14T22:52:55.193Z,2.11
2023-03-14T22:55:23.465Z,2.11
2023-03-14T22:57:55.337Z,2.10
2023-03-14T23:00:23.502Z,2.10
2023-03-14T23:02:51.719Z,2.08
2023-03-14T23:05:20.050Z,2.05
2023-03-14T23:07:48.326Z,2.04
2023-03-14T23:10:17.209Z,2.02
2023-03-14T23:12:45.695Z,2.03
2023-03-14T23:15:17.655Z,2.03
2023-03-14T23:17:45.841Z,2.04
2023-03-14T23:20:14.008Z,2.05
2023-03-14T23:22:42.173Z,2.06
2023-03-14T23:25:11.164Z,2.05
2023-03-14T23:27:39.341Z,2.03
2023-03-14T23:30:08.335Z,2.01
2023-03-14T23:32:36.543Z,2.00
2023-03-14T23:35:05.277Z,2.01
2023-03-14T23:37:33.990Z,2.00
2023-03-14T23:40:03.988Z,1.99
2023-03-14T23:42:33.292Z,2.00
2023-03-14T23:45:02.429Z,2.00
2023-03-14T23:47:30.966Z,1.98
2023-03-14T23:49:59.150Z,1.97
2023-03-14T23:52:27.308Z,1.95
2023-03-14T23:54:55.480Z,1.96
2023-03-14T23:57:23.856Z,1.96
2023-03-14T23:59:53.780Z,1.96
